sensor_id;sensor_type;location;lat;lon;timestamp;temperature;humidity
24436;DHT22;12616;52.470;13.436;2023-04-15T00:02:13;8.40;99.90
24436;DHT22;12616;52.470;13.436;2023-04-15T00:04:40;8.40;99.90
24436;DHT22;12616;52.470;13.436;2023-04-15T00:07:06;8.40;99.90
24436;DHT22;12616;52.470;13.436;2023-04-15T00:09:34;8.40;99.90
24436;DHT22;12616;52.470;13.436;2023-04-15T00:12:01;8.40;99.90
24436;DHT22;12616;52.470;13.436;2023-04-15T00:14:29;8.40;99.90
24436;DHT22;12616;52.470;13.436;2023-04-15T00:16:56;8.40;99.90
24436;DHT22;12616;52.470;13.436;2023-04-15T00:19:23;8.40;99.90
24436;DHT22;12616;52.470;13.436;2023-04-15T00:21:50;8.40;99.90
24436;DHT22;12616;52.470;13.436;2023-04-15T00:24:17;8.40;99.90
24436;DHT22;12616;52.470;13.436;2023-04-15T00:26:43;8.40;99.90
24436;DHT22;12616;52.470;13.436;2023-04-15T00:29:10;8.40;99.90
24436;DHT22;12616;52.470;13.436;2023-04-15T00:31:38;8.40;99.90
24436;DHT22;12616;52.470;13.436;2023-04-15T00:34:05;8.40;99.90
24436;DHT22;12616;52.470;13.436;2023-04-15T00:36:32;8.30;99.90
24436;DHT22;12616;52.470;13.436;2023-04-15T00:39:00;8.40;99.90
24436;DHT22;12616;52.470;13.436;2023-04-15T00:41:27;8.40;99.90
24436;DHT22;12616;52.470;13.436;2023-04-15T00:43:54;8.40;99.90
24436;DHT22;12616;52.470;13.436;2023-04-15T00:46:21;8.40;99.90
24436;DHT22;12616;52.470;13.436;2023-04-15T00:48:50;8.40;99.90
24436;DHT22;12616;52.470;13.436;2023-04-15T00:51:17;8.40;99.90
24436;DHT22;12616;52.470;13.436;2023-04-15T00:53:44;8.40;99.90
24436;DHT22;12616;52.470;13.436;2023-04-15T00:56:11;8.40;99.90
24436;DHT22;12616;52.470;13.436;2023-04-15T00:58:39;8.40;99.90
24436;DHT22;12616;52.470;13.436;2023-04-15T01:01:06;8.40;99.90
24436;DHT22;12616;52.470;13.436;2023-04-15T01:03:33;8.40;99.90
24436;DHT22;12616;52.470;13.436;2023-04-15T01:06:02;8.40;99.90
24436;DHT22;12616;52.470;13.436;2023-04-15T01:08:29;8.40;99.90
24436;DHT22;12616;52.470;13.436;2023-04-15T01:10:57;8.40;99.90
24436;DHT22;12616;52.470;13.436;2023-04-15T01:13:24;8.40;99.90
24436;DHT22;12616;52.470;13.436;2023-04-15T01:15:52;8.40;99.90
24436;DHT22;12616;52.470;13.436;2023-04-15T01:18:19;8.40;99.90
24436;DHT22;12616;52.470;13.436;2023-04-15T01:20:46;8.40;99.90
24436;DHT22;12616;52.470;13.436;2023-04-15T01:23:14;8.40;99.90
24436;DHT22;12616;52.470;13.436;2023-04-15T01:25:44;8.40;99.90
24436;DHT22;12616;52.470;13.436;2023-04-15T01:28:12;8.40;99.90
24436;DHT22;12616;52.470;13.436;2023-04-15T01:30:39;8.40;99.90
24436;DHT22;12616;52.470;13.436;2023-04-15T01:33:05;8.40;99.90
24436;DHT22;12616;52.470;13.436;2023-04-15T01:35:32;8.40;99.90
24436;DHT22;12616;52.470;13.436;2023-04-15T01:38:04;8.40;99.90
24436;DHT22;12616;52.470;13.436;2023-04-15T01:40:31;8.40;99.90
24436;DHT22;12616;52.470;13.436;2023-04-15T01:43:00;8.40;99.90
24436;DHT22;12616;52.470;13.436;2023-04-15T01:45:27;8.40;99.90
24436;DHT22;12616;52.470;13.436;2023-04-15T01:47:54;8.40;99.90
24436;DHT22;12616;52.470;13.436;2023-04-15T01:50:21;8.40;99.90
24436;DHT22;12616;52.470;13.436;2023-04-15T01:52:48;8.40;99.90
24436;DHT22;12616;52.470;13.436;2023-04-15T01:55:15;8.40;99.90
24436;DHT22;12616;52.470;13.436;2023-04-15T01:57:42;8.40;99.90
24436;DHT22;12616;52.470;13.436;2023-04-15T02:00:11;8.40;99.90
24436;DHT22;12616;52.470;13.436;2023-04-15T02:02:38;8.40;99.90
24436;DHT22;12616;52.470;13.436;2023-04-15T02:05:06;8.40;99.90
24436;DHT22;12616;52.470;13.436;2023-04-15T02:07:33;8.40;99.90
24436;DHT22;12616;52.470;13.436;2023-04-15T02:10:00;8.40;99.90
24436;DHT22;12616;52.470;13.436;2023-04-15T02:12:27;8.40;99.90
24436;DHT22;12616;52.470;13.436;2023-04-15T02:14:54;8.70;99.90
24436;DHT22;12616;52.470;13.436;2023-04-15T02:17:22;8.40;99.90
24436;DHT22;12616;52.470;13.436;2023-04-15T02:19:49;8.40;99.90
24436;DHT22;12616;52.470;13.436;2023-04-15T02:22:16;8.40;99.90
24436;DHT22;12616;52.470;13.436;2023-04-15T02:24:44;8.40;99.90
24436;DHT22;12616;52.470;13.436;2023-04-15T02:27:15;8.40;99.90
24436;DHT22;12616;52.470;13.436;2023-04-15T02:29:42;8.40;99.90
24436;DHT22;12616;52.470;13.436;2023-04-15T02:32:09;8.40;99.90
24436;DHT22;12616;52.470;13.436;2023-04-15T02:34:39;8.40;99.90
24436;DHT22;12616;52.470;13.436;2023-04-15T02:37:07;8.40;99.90
24436;DHT22;12616;52.470;13.436;2023-04-15T02:39:34;8.50;99.90
24436;DHT22;12616;52.470;13.436;2023-04-15T02:42:01;8.40;99.90
24436;DHT22;12616;52.470;13.436;2023-04-15T02:44:28;8.40;99.90
24436;DHT22;12616;52.470;13.436;2023-04-15T02:46:55;8.40;99.90
24436;DHT22;12616;52.470;13.436;2023-04-15T02:49:23;8.40;99.90
24436;DHT22;12616;52.470;13.436;2023-04-15T02:51:51;8.50;99.90
24436;DHT22;12616;52.470;13.436;2023-04-15T02:54:19;8.50;99.90
24436;DHT22;12616;52.470;13.436;2023-04-15T02:56:47;8.50;99.90
24436;DHT22;12616;52.470;13.436;2023-04-15T02:59:14;8.50;99.90
24436;DHT22;12616;52.470;13.436;2023-04-15T03:01:41;8.50;99.90
24436;DHT22;12616;52.470;13.436;2023-04-15T03:04:08;8.50;99.90
24436;DHT22;12616;52.470;13.436;2023-04-15T03:06:35;8.60;99.90
24436;DHT22;12616;52.470;13.436;2023-04-15T03:09:03;8.60;99.90
24436;DHT22;12616;52.470;13.436;2023-04-15T03:11:30;8.60;99.90
24436;DHT22;12616;52.470;13.436;2023-04-15T03:13:58;8.50;99.90
24436;DHT22;12616;52.470;13.436;2023-04-15T03:16:25;8.50;99.90
24436;DHT22;12616;52.470;13.436;2023-04-15T03:18:52;8.60;99.90
24436;DHT22;12616;52.470;13.436;2023-04-15T03:21:18;8.60;99.90
24436;DHT22;12616;52.470;13.436;2023-04-15T03:23:47;8.60;99.90
24436;DHT22;12616;52.470;13.436;2023-04-15T03:26:25;8.70;99.90
24436;DHT22;12616;52.470;13.436;2023-04-15T03:28:53;8.60;99.90
24436;DHT22;12616;52.470;13.436;2023-04-15T03:31:20;8.70;99.90
24436;DHT22;12616;52.470;13.436;2023-04-15T03:33:47;8.70;99.90
24436;DHT22;12616;52.470;13.436;2023-04-15T03:36:14;8.60;99.90
24436;DHT22;12616;52.470;13.436;2023-04-15T03:38:41;8.70;99.90
24436;DHT22;12616;52.470;13.436;2023-04-15T03:41:08;8.70;99.90
24436;DHT22;12616;52.470;13.436;2023-04-15T03:43:36;8.70;99.90
24436;DHT22;12616;52.470;13.436;2023-04-15T03:46:03;8.70;99.90
24436;DHT22;12616;52.470;13.436;2023-04-15T03:48:30;8.70;99.90
24436;DHT22;12616;52.470;13.436;2023-04-15T03:50:56;8.80;99.90
24436;DHT22;12616;52.470;13.436;2023-04-15T03:53:23;8.70;99.90
24436;DHT22;12616;52.470;13.436;2023-04-15T03:55:50;8.80;99.90
24436;DHT22;12616;52.470;13.436;2023-04-15T03:58:17;9.10;99.90
24436;DHT22;12616;52.470;13.436;2023-04-15T04:00:45;8.70;99.90
24436;DHT22;12616;52.470;13.436;2023-04-15T04:03:12;8.70;99.90
24436;DHT22;12616;52.470;13.436;2023-04-15T04:05:39;8.80;99.90
24436;DHT22;12616;52.470;13.436;2023-04-15T04:08:07;8.80;99.90
24436;DHT22;12616;52.470;13.436;2023-04-15T04:10:33;8.70;99.90
24436;DHT22;12616;52.470;13.436;2023-04-15T04:13:00;8.40;99.90
24436;DHT22;12616;52.470;13.436;2023-04-15T04:15:27;8.70;99.90
24436;DHT22;12616;52.470;13.436;2023-04-15T04:17:57;8.70;99.90
24436;DHT22;12616;52.470;13.436;2023-04-15T04:20:24;8.70;99.90
24436;DHT22;12616;52.470;13.436;2023-04-15T04:22:51;8.70;99.90
24436;DHT22;12616;52.470;13.436;2023-04-15T04:25:18;8.80;99.90
24436;DHT22;12616;52.470;13.436;2023-04-15T04:27:44;8.80;99.90
24436;DHT22;12616;52.470;13.436;2023-04-15T04:30:12;8.80;99.90
24436;DHT22;12616;52.470;13.436;2023-04-15T04:32:39;8.80;99.90
24436;DHT22;12616;52.470;13.436;2023-04-15T04:35:08;8.80;99.90
24436;DHT22;12616;52.470;13.436;2023-04-15T04:37:34;8.90;99.90
24436;DHT22;12616;52.470;13.436;2023-04-15T04:40:01;8.90;99.90
24436;DHT22;12616;52.470;13.436;2023-04-15T04:42:29;8.90;99.90
24436;DHT22;12616;52.470;13.436;2023-04-15T04:44:56;9.00;99.90
24436;DHT22;12616;52.470;13.436;2023-04-15T04:47:22;9.00;99.90
24436;DHT22;12616;52.470;13.436;2023-04-15T04:49:49;9.00;99.90
24436;DHT22;12616;52.470;13.436;2023-04-15T04:52:17;9.10;99.90
24436;DHT22;12616;52.470;13.436;2023-04-15T04:54:44;9.10;99.90
24436;DHT22;12616;52.470;13.436;2023-04-15T04:57:11;9.10;99.90
24436;DHT22;12616;52.470;13.436;2023-04-15T04:59:39;9.20;99.90
24436;DHT22;12616;52.470;13.436;2023-04-15T05:02:06;9.20;99.90
24436;DHT22;12616;52.470;13.436;2023-04-15T05:04:33;9.20;99.90
24436;DHT22;12616;52.470;13.436;2023-04-15T05:07:00;9.20;99.90
24436;DHT22;12616;52.470;13.436;2023-04-15T05:09:28;9.20;99.90
24436;DHT22;12616;52.470;13.436;2023-04-15T05:11:56;9.20;99.90
24436;DHT22;12616;52.470;13.436;2023-04-15T05:14:23;9.20;99.90
24436;DHT22;12616;52.470;13.436;2023-04-15T05:16:51;9.20;99.90
24436;DHT22;12616;52.470;13.436;2023-04-15T05:19:17;9.20;99.90
24436;DHT22;12616;52.470;13.436;2023-04-15T05:21:44;9.20;99.90
24436;DHT22;12616;52.470;13.436;2023-04-15T05:24:11;9.20;99.90
24436;DHT22;12616;52.470;13.436;2023-04-15T05:26:39;9.20;99.90
24436;DHT22;12616;52.470;13.436;2023-04-15T05:29:06;9.20;99.90
24436;DHT22;12616;52.470;13.436;2023-04-15T05:31:33;9.20;99.90
24436;DHT22;12616;52.470;13.436;2023-04-15T05:34:00;9.20;99.90
24436;DHT22;12616;52.470;13.436;2023-04-15T05:36:27;9.30;99.90
24436;DHT22;12616;52.470;13.436;2023-04-15T05:38:54;9.40;99.90
24436;DHT22;12616;52.470;13.436;2023-04-15T05:41:21;9.30;99.90
24436;DHT22;12616;52.470;13.436;2023-04-15T05:43:49;9.30;99.90
24436;DHT22;12616;52.470;13.436;2023-04-15T05:46:16;9.40;99.90
24436;DHT22;12616;52.470;13.436;2023-04-15T05:48:42;9.40;99.90
24436;DHT22;12616;52.470;13.436;2023-04-15T05:51:09;9.40;99.90
24436;DHT22;12616;52.470;13.436;2023-04-15T05:53:36;9.40;99.90
24436;DHT22;12616;52.470;13.436;2023-04-15T05:56:03;9.50;99.90
24436;DHT22;12616;52.470;13.436;2023-04-15T05:58:30;9.50;99.90
24436;DHT22;12616;52.470;13.436;2023-04-15T06:00:58;9.50;99.90
24436;DHT22;12616;52.470;13.436;2023-04-15T06:03:25;9.60;99.90
24436;DHT22;12616;52.470;13.436;2023-04-15T06:05:53;9.60;99.90
24436;DHT22;12616;52.470;13.436;2023-04-15T06:08:19;9.40;99.90
24436;DHT22;12616;52.470;13.436;2023-04-15T06:10:47;9.60;99.90
24436;DHT22;12616;52.470;13.436;2023-04-15T06:13:13;9.60;99.90
24436;DHT22;12616;52.470;13.436;2023-04-15T06:15:41;9.70;99.90
24436;DHT22;12616;52.470;13.436;2023-04-15T06:18:09;9.70;99.90
24436;DHT22;12616;52.470;13.436;2023-04-15T06:20:37;9.70;99.90
24436;DHT22;12616;52.470;13.436;2023-04-15T06:23:04;9.70;99.90
24436;DHT22;12616;52.470;13.436;2023-04-15T06:25:31;9.70;99.90
24436;DHT22;12616;52.470;13.436;2023-04-15T06:27:58;9.80;99.90
24436;DHT22;12616;52.470;13.436;2023-04-15T06:30:25;9.80;99.90
24436;DHT22;12616;52.470;13.436;2023-04-15T06:32:51;9.80;99.90
24436;DHT22;12616;52.470;13.436;2023-04-15T06:35:20;9.80;49.20
24436;DHT22;12616;52.470;13.436;2023-04-15T06:37:47;9.90;37.10
24436;DHT22;12616;52.470;13.436;2023-04-15T06:40:14;9.90;1.00
24436;DHT22;12616;52.470;13.436;2023-04-15T06:42:41;9.90;1.00
24436;DHT22;12616;52.470;13.436;2023-04-15T06:45:09;9.90;1.00
24436;DHT22;12616;52.470;13.436;2023-04-15T06:47:36;10.00;1.00
24436;DHT22;12616;52.470;13.436;2023-04-15T06:50:03;10.00;1.00
24436;DHT22;12616;52.470;13.436;2023-04-15T06:52:31;10.00;1.00
24436;DHT22;12616;52.470;13.436;2023-04-15T06:54:58;10.20;1.00
24436;DHT22;12616;52.470;13.436;2023-04-15T06:57:25;10.20;1.00
24436;DHT22;12616;52.470;13.436;2023-04-15T06:59:53;10.20;1.00
24436;DHT22;12616;52.470;13.436;2023-04-15T07:02:20;9.90;1.00
24436;DHT22;12616;52.470;13.436;2023-04-15T07:04:47;10.20;1.00
24436;DHT22;12616;52.470;13.436;2023-04-15T07:07:13;10.20;1.00
24436;DHT22;12616;52.470;13.436;2023-04-15T07:09:43;10.20;1.00
24436;DHT22;12616;52.470;13.436;2023-04-15T07:12:10;10.30;1.00
24436;DHT22;12616;52.470;13.436;2023-04-15T07:14:36;10.20;1.00
24436;DHT22;12616;52.470;13.436;2023-04-15T07:17:03;10.20;1.00
24436;DHT22;12616;52.470;13.436;2023-04-15T07:19:31;10.20;1.00
24436;DHT22;12616;52.470;13.436;2023-04-15T07:21:57;10.20;1.00
24436;DHT22;12616;52.470;13.436;2023-04-15T07:24:24;10.20;1.00
24436;DHT22;12616;52.470;13.436;2023-04-15T07:26:53;10.20;1.00
24436;DHT22;12616;52.470;13.436;2023-04-15T07:29:20;10.20;1.00
24436;DHT22;12616;52.470;13.436;2023-04-15T07:31:47;10.20;1.00
24436;DHT22;12616;52.470;13.436;2023-04-15T07:34:14;10.20;1.00
24436;DHT22;12616;52.470;13.436;2023-04-15T07:36:41;10.20;1.00
24436;DHT22;12616;52.470;13.436;2023-04-15T07:39:08;10.20;1.00
24436;DHT22;12616;52.470;13.436;2023-04-15T07:41:35;10.10;1.00
24436;DHT22;12616;52.470;13.436;2023-04-15T07:44:04;10.10;1.00
24436;DHT22;12616;52.470;13.436;2023-04-15T07:46:31;10.00;1.00
24436;DHT22;12616;52.470;13.436;2023-04-15T07:48:57;10.00;1.00
24436;DHT22;12616;52.470;13.436;2023-04-15T07:51:24;10.00;1.00
24436;DHT22;12616;52.470;13.436;2023-04-15T07:53:51;10.00;1.00
24436;DHT22;12616;52.470;13.436;2023-04-15T07:56:19;10.00;1.00
24436;DHT22;12616;52.470;13.436;2023-04-15T07:58:46;10.00;1.00
24436;DHT22;12616;52.470;13.436;2023-04-15T08:01:14;10.00;1.00
24436;DHT22;12616;52.470;13.436;2023-04-15T08:03:41;10.00;1.00
24436;DHT22;12616;52.470;13.436;2023-04-15T08:06:08;9.90;1.00
24436;DHT22;12616;52.470;13.436;2023-04-15T08:08:35;10.00;1.00
24436;DHT22;12616;52.470;13.436;2023-04-15T08:11:02;10.00;1.00
24436;DHT22;12616;52.470;13.436;2023-04-15T08:13:28;9.90;1.00
24436;DHT22;12616;52.470;13.436;2023-04-15T08:16:12;10.00;1.00
24436;DHT22;12616;52.470;13.436;2023-04-15T08:18:41;10.00;1.00
24436;DHT22;12616;52.470;13.436;2023-04-15T08:21:07;10.00;1.00
24436;DHT22;12616;52.470;13.436;2023-04-15T08:23:34;10.00;1.00
24436;DHT22;12616;52.470;13.436;2023-04-15T08:26:02;10.00;1.00
24436;DHT22;12616;52.470;13.436;2023-04-15T08:28:29;10.00;1.00
24436;DHT22;12616;52.470;13.436;2023-04-15T08:30:56;10.00;3.20
24436;DHT22;12616;52.470;13.436;2023-04-15T08:33:23;10.00;24.20
24436;DHT22;12616;52.470;13.436;2023-04-15T08:35:51;9.90;1.00
24436;DHT22;12616;52.470;13.436;2023-04-15T08:38:18;10.40;14.10
24436;DHT22;12616;52.470;13.436;2023-04-15T08:40:45;9.90;1.00
24436;DHT22;12616;52.470;13.436;2023-04-15T08:43:16;10.00;1.00
24436;DHT22;12616;52.470;13.436;2023-04-15T08:45:45;10.00;1.00
24436;DHT22;12616;52.470;13.436;2023-04-15T08:48:14;9.80;64.20
24436;DHT22;12616;52.470;13.436;2023-04-15T08:50:41;10.00;12.40
24436;DHT22;12616;52.470;13.436;2023-04-15T08:53:10;10.00;27.80
24436;DHT22;12616;52.470;13.436;2023-04-15T08:55:42;9.90;37.30
24436;DHT22;12616;52.470;13.436;2023-04-15T08:58:09;9.80;99.90
24436;DHT22;12616;52.470;13.436;2023-04-15T09:00:37;10.00;65.60
24436;DHT22;12616;52.470;13.436;2023-04-15T09:03:04;10.00;80.10
24436;DHT22;12616;52.470;13.436;2023-04-15T09:05:32;10.10;95.10
24436;DHT22;12616;52.470;13.436;2023-04-15T09:07:59;10.10;91.80
24436;DHT22;12616;52.470;13.436;2023-04-15T09:10:28;10.10;89.50
24436;DHT22;12616;52.470;13.436;2023-04-15T09:12:56;10.10;47.20
24436;DHT22;12616;52.470;13.436;2023-04-15T09:15:24;10.20;85.90
24436;DHT22;12616;52.470;13.436;2023-04-15T09:17:52;10.30;99.90
24436;DHT22;12616;52.470;13.436;2023-04-15T09:20:19;10.20;61.70
24436;DHT22;12616;52.470;13.436;2023-04-15T09:22:47;10.20;28.30
24436;DHT22;12616;52.470;13.436;2023-04-15T09:25:25;10.20;11.90
24436;DHT22;12616;52.470;13.436;2023-04-15T09:27:55;10.10;43.90
24436;DHT22;12616;52.470;13.436;2023-04-15T09:30:22;10.20;81.20
24436;DHT22;12616;52.470;13.436;2023-04-15T09:32:49;10.20;43.10
24436;DHT22;12616;52.470;13.436;2023-04-15T09:35:16;10.20;74.90
24436;DHT22;12616;52.470;13.436;2023-04-15T09:37:43;10.20;99.90
24436;DHT22;12616;52.470;13.436;2023-04-15T09:40:11;10.20;98.40
24436;DHT22;12616;52.470;13.436;2023-04-15T09:42:54;10.20;70.90
24436;DHT22;12616;52.470;13.436;2023-04-15T09:45:22;10.20;99.90
24436;DHT22;12616;52.470;13.436;2023-04-15T09:47:50;10.20;99.90
24436;DHT22;12616;52.470;13.436;2023-04-15T09:50:18;10.20;99.90
24436;DHT22;12616;52.470;13.436;2023-04-15T09:52:45;10.10;99.90
24436;DHT22;12616;52.470;13.436;2023-04-15T09:55:13;10.10;99.90
24436;DHT22;12616;52.470;13.436;2023-04-15T09:57:40;10.10;99.90
24436;DHT22;12616;52.470;13.436;2023-04-15T10:00:11;10.10;99.90
24436;DHT22;12616;52.470;13.436;2023-04-15T10:02:39;10.10;99.90
24436;DHT22;12616;52.470;13.436;2023-04-15T10:05:09;10.10;99.90
24436;DHT22;12616;52.470;13.436;2023-04-15T10:07:37;10.10;99.90
24436;DHT22;12616;52.470;13.436;2023-04-15T10:10:06;10.00;99.90
24436;DHT22;12616;52.470;13.436;2023-04-15T10:12:35;10.00;99.90
24436;DHT22;12616;52.470;13.436;2023-04-15T10:15:04;10.10;99.90
24436;DHT22;12616;52.470;13.436;2023-04-15T10:17:33;9.70;99.90
24436;DHT22;12616;52.470;13.436;2023-04-15T10:20:02;10.00;99.90
24436;DHT22;12616;52.470;13.436;2023-04-15T10:22:30;10.00;99.90
24436;DHT22;12616;52.470;13.436;2023-04-15T10:24:58;10.00;99.90
24436;DHT22;12616;52.470;13.436;2023-04-15T10:27:26;10.00;99.90
24436;DHT22;12616;52.470;13.436;2023-04-15T10:29:53;10.10;99.90
24436;DHT22;12616;52.470;13.436;2023-04-15T10:32:21;10.10;99.90
24436;DHT22;12616;52.470;13.436;2023-04-15T10:34:51;10.10;99.90
24436;DHT22;12616;52.470;13.436;2023-04-15T10:37:20;10.10;99.90
24436;DHT22;12616;52.470;13.436;2023-04-15T10:39:47;10.20;99.90
24436;DHT22;12616;52.470;13.436;2023-04-15T10:42:15;10.30;99.90
24436;DHT22;12616;52.470;13.436;2023-04-15T10:44:43;10.20;99.90
24436;DHT22;12616;52.470;13.436;2023-04-15T10:47:12;10.20;99.90
24436;DHT22;12616;52.470;13.436;2023-04-15T10:49:44;10.20;99.90
24436;DHT22;12616;52.470;13.436;2023-04-15T10:52:14;10.20;99.90
24436;DHT22;12616;52.470;13.436;2023-04-15T10:54:41;10.20;99.90
24436;DHT22;12616;52.470;13.436;2023-04-15T10:57:13;10.10;99.90
24436;DHT22;12616;52.470;13.436;2023-04-15T10:59:59;10.20;99.90
24436;DHT22;12616;52.470;13.436;2023-04-15T11:02:41;10.20;99.90
24436;DHT22;12616;52.470;13.436;2023-04-15T11:05:09;10.20;99.90
24436;DHT22;12616;52.470;13.436;2023-04-15T11:07:39;10.20;99.90
24436;DHT22;12616;52.470;13.436;2023-04-15T11:13:25;9.90;99.90
24436;DHT22;12616;52.470;13.436;2023-04-15T11:16:01;10.10;99.90
24436;DHT22;12616;52.470;13.436;2023-04-15T11:18:29;10.30;99.90
24436;DHT22;12616;52.470;13.436;2023-04-15T11:20:59;10.20;99.90
24436;DHT22;12616;52.470;13.436;2023-04-15T11:23:30;10.20;99.90
24436;DHT22;12616;52.470;13.436;2023-04-15T11:25:57;10.20;99.90
24436;DHT22;12616;52.470;13.436;2023-04-15T11:28:26;10.20;99.90
24436;DHT22;12616;52.470;13.436;2023-04-15T11:30:53;10.20;99.90
24436;DHT22;12616;52.470;13.436;2023-04-15T11:33:21;10.30;99.90
24436;DHT22;12616;52.470;13.436;2023-04-15T11:35:49;10.30;99.90
24436;DHT22;12616;52.470;13.436;2023-04-15T11:38:16;10.20;99.90
24436;DHT22;12616;52.470;13.436;2023-04-15T11:40:45;10.00;99.90
24436;DHT22;12616;52.470;13.436;2023-04-15T11:43:13;10.20;99.90
24436;DHT22;12616;52.470;13.436;2023-04-15T11:45:49;10.20;99.90
24436;DHT22;12616;52.470;13.436;2023-04-15T11:48:20;10.30;99.90
24436;DHT22;12616;52.470;13.436;2023-04-15T11:50:52;10.30;99.90
24436;DHT22;12616;52.470;13.436;2023-04-15T11:53:19;10.30;99.90
24436;DHT22;12616;52.470;13.436;2023-04-15T11:55:52;10.30;99.90
24436;DHT22;12616;52.470;13.436;2023-04-15T11:58:20;10.30;99.90
24436;DHT22;12616;52.470;13.436;2023-04-15T12:00:49;10.20;99.90
24436;DHT22;12616;52.470;13.436;2023-04-15T12:03:19;10.30;99.90
24436;DHT22;12616;52.470;13.436;2023-04-15T12:06:08;10.30;99.90
24436;DHT22;12616;52.470;13.436;2023-04-15T12:08:57;10.20;99.90
24436;DHT22;12616;52.470;13.436;2023-04-15T12:11:40;10.30;99.90
24436;DHT22;12616;52.470;13.436;2023-04-15T12:14:10;10.30;99.90
24436;DHT22;12616;52.470;13.436;2023-04-15T12:16:40;10.30;99.90
24436;DHT22;12616;52.470;13.436;2023-04-15T12:19:12;10.30;99.90
24436;DHT22;12616;52.470;13.436;2023-04-15T12:21:40;10.30;99.90
24436;DHT22;12616;52.470;13.436;2023-04-15T12:24:09;10.40;99.90
24436;DHT22;12616;52.470;13.436;2023-04-15T12:26:43;10.40;99.90
24436;DHT22;12616;52.470;13.436;2023-04-15T12:29:11;10.50;99.90
24436;DHT22;12616;52.470;13.436;2023-04-15T12:31:46;10.50;99.90
24436;DHT22;12616;52.470;13.436;2023-04-15T12:34:14;10.60;99.90
24436;DHT22;12616;52.470;13.436;2023-04-15T12:36:41;10.80;99.90
24436;DHT22;12616;52.470;13.436;2023-04-15T12:39:08;10.60;99.90
24436;DHT22;12616;52.470;13.436;2023-04-15T12:41:35;10.60;99.90
24436;DHT22;12616;52.470;13.436;2023-04-15T12:44:04;10.60;99.90
24436;DHT22;12616;52.470;13.436;2023-04-15T12:46:31;10.60;99.90
24436;DHT22;12616;52.470;13.436;2023-04-15T12:48:58;10.50;99.90
24436;DHT22;12616;52.470;13.436;2023-04-15T12:51:24;10.60;99.90
24436;DHT22;12616;52.470;13.436;2023-04-15T12:53:52;10.70;99.90
24436;DHT22;12616;52.470;13.436;2023-04-15T12:56:19;10.60;99.90
24436;DHT22;12616;52.470;13.436;2023-04-15T12:58:46;10.70;99.90
24436;DHT22;12616;52.470;13.436;2023-04-15T13:01:15;10.80;99.90
24436;DHT22;12616;52.470;13.436;2023-04-15T13:03:42;10.80;99.90
24436;DHT22;12616;52.470;13.436;2023-04-15T13:06:09;10.90;99.90
24436;DHT22;12616;52.470;13.436;2023-04-15T13:08:37;11.20;99.90
24436;DHT22;12616;52.470;13.436;2023-04-15T13:11:04;11.00;99.90
24436;DHT22;12616;52.470;13.436;2023-04-15T13:13:31;10.90;99.90
24436;DHT22;12616;52.470;13.436;2023-04-15T13:15:59;10.80;99.90
24436;DHT22;12616;52.470;13.436;2023-04-15T13:18:27;10.80;99.90
24436;DHT22;12616;52.470;13.436;2023-04-15T13:20:55;10.80;99.90
24436;DHT22;12616;52.470;13.436;2023-04-15T13:23:22;10.90;99.90
24436;DHT22;12616;52.470;13.436;2023-04-15T13:25:49;10.90;99.90
24436;DHT22;12616;52.470;13.436;2023-04-15T13:28:16;10.80;99.90
24436;DHT22;12616;52.470;13.436;2023-04-15T13:30:43;10.90;99.90
24436;DHT22;12616;52.470;13.436;2023-04-15T13:33:10;10.90;99.90
24436;DHT22;12616;52.470;13.436;2023-04-15T13:35:39;10.90;99.90
24436;DHT22;12616;52.470;13.436;2023-04-15T13:38:06;11.00;99.90
24436;DHT22;12616;52.470;13.436;2023-04-15T13:40:33;11.00;99.90
24436;DHT22;12616;52.470;13.436;2023-04-15T13:43:00;11.10;99.90
24436;DHT22;12616;52.470;13.436;2023-04-15T13:45:30;11.00;99.90
24436;DHT22;12616;52.470;13.436;2023-04-15T13:47:57;10.90;99.90
24436;DHT22;12616;52.470;13.436;2023-04-15T13:50:24;11.20;99.90
24436;DHT22;12616;52.470;13.436;2023-04-15T13:52:52;10.90;99.90
24436;DHT22;12616;52.470;13.436;2023-04-15T13:55:19;10.90;99.90
24436;DHT22;12616;52.470;13.436;2023-04-15T13:57:46;10.90;99.90
24436;DHT22;12616;52.470;13.436;2023-04-15T14:00:17;10.90;99.90
24436;DHT22;12616;52.470;13.436;2023-04-15T14:02:45;11.00;99.90
24436;DHT22;12616;52.470;13.436;2023-04-15T14:05:15;10.80;99.90
24436;DHT22;12616;52.470;13.436;2023-04-15T14:07:45;10.80;99.90
24436;DHT22;12616;52.470;13.436;2023-04-15T14:10:17;10.90;99.90
24436;DHT22;12616;52.470;13.436;2023-04-15T14:12:52;11.80;99.90
24436;DHT22;12616;52.470;13.436;2023-04-15T14:15:20;10.80;99.90
24436;DHT22;12616;52.470;13.436;2023-04-15T14:20:26;10.70;99.90
24436;DHT22;12616;52.470;13.436;2023-04-15T14:25:30;10.80;99.90
24436;DHT22;12616;52.470;13.436;2023-04-15T14:33:07;10.70;99.90
24436;DHT22;12616;52.470;13.436;2023-04-15T14:38:04;10.90;99.90
24436;DHT22;12616;52.470;13.436;2023-04-15T14:40:39;10.60;99.90
24436;DHT22;12616;52.470;13.436;2023-04-15T14:43:09;10.40;99.90
24436;DHT22;12616;52.470;13.436;2023-04-15T14:45:38;11.20;99.90
24436;DHT22;12616;52.470;13.436;2023-04-15T14:50:34;10.70;99.90
24436;DHT22;12616;52.470;13.436;2023-04-15T14:53:01;10.70;99.90
24436;DHT22;12616;52.470;13.436;2023-04-15T14:55:28;10.60;99.90
24436;DHT22;12616;52.470;13.436;2023-04-15T14:57:57;10.60;99.90
24436;DHT22;12616;52.470;13.436;2023-04-15T15:00:23;10.60;99.90
24436;DHT22;12616;52.470;13.436;2023-04-15T15:02:50;10.60;99.90
24436;DHT22;12616;52.470;13.436;2023-04-15T15:05:17;10.70;99.90
24436;DHT22;12616;52.470;13.436;2023-04-15T15:07:44;10.70;99.90
24436;DHT22;12616;52.470;13.436;2023-04-15T15:10:11;10.60;99.90
24436;DHT22;12616;52.470;13.436;2023-04-15T15:12:38;10.50;99.90
24436;DHT22;12616;52.470;13.436;2023-04-15T15:15:07;10.50;99.90
24436;DHT22;12616;52.470;13.436;2023-04-15T15:17:34;10.60;99.90
24436;DHT22;12616;52.470;13.436;2023-04-15T15:20:01;10.60;99.90
24436;DHT22;12616;52.470;13.436;2023-04-15T15:22:29;10.50;99.90
24436;DHT22;12616;52.470;13.436;2023-04-15T15:24:56;10.60;99.90
24436;DHT22;12616;52.470;13.436;2023-04-15T15:29:52;10.60;99.90
24436;DHT22;12616;52.470;13.436;2023-04-15T15:32:20;10.60;99.90
24436;DHT22;12616;52.470;13.436;2023-04-15T15:34:47;10.70;99.90
24436;DHT22;12616;52.470;13.436;2023-04-15T15:37:14;10.80;99.90
24436;DHT22;12616;52.470;13.436;2023-04-15T15:39:41;10.60;99.90
24436;DHT22;12616;52.470;13.436;2023-04-15T15:42:08;10.60;99.90
24436;DHT22;12616;52.470;13.436;2023-04-15T15:44:35;10.60;99.90
24436;DHT22;12616;52.470;13.436;2023-04-15T15:47:03;10.40;99.90
24436;DHT22;12616;52.470;13.436;2023-04-15T15:49:31;10.70;99.90
24436;DHT22;12616;52.470;13.436;2023-04-15T15:51:59;10.50;99.90